createdAt,value
2017-11-17T00:02:18.111Z,52.47
2017-11-17T00:04:47.395Z,57.70
2017-11-17T00:07:16.681Z,61.07
2017-11-17T00:09:45.935Z,54.40
2017-11-17T00:12:15.384Z,55.83
2017-11-17T00:14:44.646Z,66.23
2017-11-17T00:17:14.056Z,69.23
2017-11-17T00:19:43.291Z,49.67
2017-11-17T00:22:13.303Z,57.07
2017-11-17T00:24:42.586Z,52.13
2017-11-17T00:27:11.832Z,46.37
2017-11-17T00:29:41.835Z,52.27
2017-11-17T00:32:11.235Z,52.67
2017-11-17T00:34:41.247Z,49.93
2017-11-17T00:37:10.511Z,38.13
2017-11-17T00:39:39.750Z,62.37
2017-11-17T00:42:09.795Z,65.73
2017-11-17T00:44:39.195Z,48.80
2017-11-17T00:47:09.225Z,41.23
2017-11-17T00:49:38.624Z,37.77
2017-11-17T00:52:08.757Z,35.63
2017-11-17T00:54:38.015Z,49.00
2017-11-17T00:57:08.158Z,48.80
2017-11-17T00:59:38.168Z,52.87
2017-11-17T01:02:07.559Z,57.23
2017-11-17T01:04:37.571Z,54.33
2017-11-17T01:07:06.832Z,59.03
2017-11-17T01:09:36.291Z,40.50
2017-11-17T01:12:06.435Z,54.73
2017-11-17T01:14:35.703Z,44.70
2017-11-17T01:17:05.801Z,41.73
2017-11-17T01:19:35.393Z,48.83
2017-11-17T01:22:04.640Z,39.20
2017-11-17T01:24:34.764Z,44.50
2017-11-17T01:27:04.798Z,42.50
2017-11-17T01:29:34.095Z,40.73
2017-11-17T01:32:03.341Z,63.90
2017-11-17T01:34:32.681Z,42.27
2017-11-17T01:37:01.944Z,49.33
2017-11-17T01:39:31.224Z,46.97
2017-11-17T01:42:00.684Z,36.63
2017-11-17T01:44:30.741Z,50.07
2017-11-17T01:46:59.991Z,48.10
2017-11-17T01:49:29.310Z,51.77
2017-11-17T01:51:58.729Z,51.20
2017-11-17T01:54:28.001Z,51.40
2017-11-17T01:56:57.258Z,45.70
2017-11-17T01:59:26.589Z,53.57
2017-11-17T02:01:55.927Z,54.33
2017-11-17T02:04:25.956Z,54.27
2017-11-17T02:06:55.212Z,41.03
2017-11-17T02:09:24.481Z,42.23
2017-11-17T02:11:53.951Z,47.47
2017-11-17T02:14:23.992Z,43.50
2017-11-17T02:16:53.253Z,29.13
2017-11-17T02:19:22.512Z,40.63
2017-11-17T02:21:51.760Z,54.10
2017-11-17T02:24:21.783Z,45.43
2017-11-17T02:26:51.133Z,42.07
2017-11-17T02:29:20.382Z,48.90
2017-11-17T02:31:49.667Z,47.50
2017-11-17T02:34:18.929Z,40.73
2017-11-17T02:36:48.182Z,55.23
2017-11-17T02:39:18.217Z,40.77
2017-11-17T02:41:47.488Z,39.43
2017-11-17T02:44:16.747Z,38.97
2017-11-17T02:46:46.013Z,42.07
2017-11-17T02:49:16.131Z,49.53
2017-11-17T02:51:46.171Z,47.53
2017-11-17T02:54:15.513Z,38.23
2017-11-17T02:56:44.779Z,53.33
2017-11-17T02:59:14.061Z,39.93
2017-11-17T03:01:43.294Z,38.47
2017-11-17T03:04:12.664Z,43.10
2017-11-17T03:06:42.052Z,40.63
2017-11-17T03:09:12.104Z,41.00
2017-11-17T03:11:41.940Z,66.37
2017-11-17T03:14:11.200Z,57.90
2017-11-17T03:16:41.337Z,157.37
2017-11-17T03:19:10.751Z,81.13
2017-11-17T03:21:40.072Z,90.53
2017-11-17T03:24:09.525Z,142.27
2017-11-17T03:26:38.799Z,179.47
2017-11-17T03:29:09.551Z,94.80
2017-11-17T03:31:38.824Z,125.37
2017-11-17T03:34:08.075Z,83.67
2017-11-17T03:36:37.359Z,106.27
2017-11-17T03:44:42.250Z,206.27
2017-11-17T03:47:11.529Z,136.87
2017-11-17T03:49:41.256Z,178.00
2017-11-17T03:52:10.580Z,262.30
2017-11-17T03:54:39.951Z,151.90
2017-11-17T03:57:10.155Z,133.17
2017-11-17T03:59:39.400Z,137.90
2017-11-17T04:02:08.704Z,108.53
2017-11-17T04:04:37.968Z,112.57
2017-11-17T04:07:07.986Z,124.00
2017-11-17T04:09:37.344Z,216.53
2017-11-17T04:12:06.692Z,155.47
2017-11-17T04:14:36.820Z,108.90
2017-11-17T04:17:06.853Z,125.20
2017-11-17T04:19:36.271Z,104.97
2017-11-17T04:22:05.532Z,74.20
2017-11-17T04:24:35.573Z,92.57
2017-11-17T04:27:04.896Z,105.03
2017-11-17T04:29:34.166Z,142.67
2017-11-17T04:32:03.424Z,98.27
2017-11-17T04:34:32.691Z,208.23
2017-11-17T04:37:01.945Z,78.23
2017-11-17T04:39:31.302Z,206.30
2017-11-17T04:42:01.155Z,114.63
2017-11-17T04:44:30.407Z,90.57
2017-11-17T04:46:59.709Z,286.70
2017-11-17T04:49:28.955Z,125.40
2017-11-17T04:51:58.227Z,194.17
2017-11-17T04:54:27.630Z,204.23
2017-11-17T04:56:57.007Z,209.53
2017-11-17T04:59:26.411Z,193.43
2017-11-17T05:01:55.643Z,154.70
2017-11-17T05:04:24.916Z,207.47
2017-11-17T05:06:54.263Z,204.27
2017-11-17T05:09:23.533Z,65.07
2017-11-17T05:11:52.787Z,155.57
2017-11-17T05:14:22.823Z,111.33
2017-11-17T05:16:52.111Z,90.23
2017-11-17T05:19:21.411Z,81.47
2017-11-17T05:21:50.816Z,98.77
2017-11-17T05:24:20.934Z,309.70
2017-11-17T05:26:50.182Z,292.50
2017-11-17T05:29:19.463Z,209.73
2017-11-17T05:31:48.716Z,134.43
2017-11-17T05:34:17.991Z,145.33
2017-11-17T05:36:47.271Z,179.43
2017-11-17T05:39:16.536Z,393.07
2017-11-17T05:41:46.840Z,186.73
2017-11-17T05:44:16.177Z,240.20
2017-11-17T05:46:45.492Z,113.33
2017-11-17T05:49:14.753Z,164.87
2017-11-17T05:51:44.290Z,61.23
2017-11-17T05:54:14.571Z,90.43
2017-11-17T05:56:43.825Z,130.00
2017-11-17T05:59:13.809Z,65.97
2017-11-17T06:01:43.123Z,61.90
2017-11-17T06:04:13.237Z,120.90
2017-11-17T06:06:43.346Z,116.60
2017-11-17T06:09:12.602Z,144.67
2017-11-17T06:11:41.873Z,98.67
2017-11-17T06:14:11.172Z,48.97
2017-11-17T06:16:40.385Z,198.43
2017-11-17T06:19:09.678Z,170.73
2017-11-17T06:21:39.799Z,103.83
2017-11-17T06:24:10.032Z,180.87
2017-11-17T06:26:39.253Z,195.70
2017-11-17T06:29:08.556Z,205.43
2017-11-17T06:31:38.587Z,258.97
2017-11-17T06:34:07.847Z,140.60
2017-11-17T06:36:37.110Z,87.63
2017-11-17T06:39:06.379Z,157.67
2017-11-17T06:41:35.652Z,160.33
2017-11-17T06:44:04.977Z,116.80
2017-11-17T06:46:35.075Z,153.97
2017-11-17T06:49:05.107Z,145.07
2017-11-17T06:51:34.442Z,130.60
2017-11-17T06:54:03.728Z,246.13
2017-11-17T06:56:32.975Z,118.53
2017-11-17T06:59:02.252Z,161.53
2017-11-17T07:01:31.530Z,100.83
2017-11-17T07:04:00.991Z,115.63
2017-11-17T07:06:30.339Z,138.53
2017-11-17T07:08:59.595Z,119.23
2017-11-17T07:11:28.915Z,157.17
2017-11-17T07:13:58.946Z,88.67
2017-11-17T07:16:28.400Z,68.90
2017-11-17T07:18:57.717Z,180.63
2017-11-17T07:21:26.984Z,134.40
2017-11-17T07:23:56.239Z,126.87
2017-11-17T07:26:26.283Z,107.37
2017-11-17T07:28:55.760Z,92.30
2017-11-17T07:31:25.044Z,138.03
2017-11-17T07:33:54.323Z,244.43
2017-11-17T07:36:23.676Z,113.17
2017-11-17T07:38:53.094Z,157.97
2017-11-17T07:41:22.374Z,165.20
2017-11-17T07:43:51.999Z,96.60
2017-11-17T07:46:21.264Z,201.37
2017-11-17T07:48:50.556Z,204.57
2017-11-17T07:51:20.529Z,95.30
2017-11-17T07:53:49.752Z,136.70
2017-11-17T07:56:19.043Z,105.83
2017-11-17T07:58:48.337Z,122.20
2017-11-17T08:01:17.621Z,60.03
2017-11-17T08:03:47.651Z,73.63
2017-11-17T08:06:17.046Z,83.00
2017-11-17T08:08:47.151Z,107.70
2017-11-17T08:11:17.290Z,85.67
2017-11-17T08:13:46.565Z,100.27
2017-11-17T08:16:16.584Z,69.57
2017-11-17T08:18:48.573Z,73.30
2017-11-17T08:21:17.832Z,99.77
2017-11-17T08:23:47.155Z,58.90
2017-11-17T08:26:16.423Z,63.90
2017-11-17T08:28:45.880Z,47.10
2017-11-17T08:31:15.148Z,66.43
2017-11-17T08:33:44.503Z,52.90
2017-11-17T08:36:13.786Z,51.17
2017-11-17T08:38:43.832Z,48.33
2017-11-17T08:41:13.211Z,53.60
2017-11-17T08:43:43.519Z,43.90
2017-11-17T08:46:13.612Z,41.03
2017-11-17T08:48:42.877Z,39.57
2017-11-17T08:51:12.428Z,47.97
2017-11-17T08:53:41.748Z,24.37
2017-11-17T08:56:11.852Z,37.03
2017-11-17T08:58:41.112Z,33.07
2017-11-17T09:01:10.361Z,40.40
2017-11-17T09:03:39.636Z,30.07
2017-11-17T09:06:08.868Z,28.03
2017-11-17T09:08:38.897Z,35.80
2017-11-17T09:11:08.159Z,35.73
2017-11-17T09:13:37.411Z,30.77
2017-11-17T09:16:06.682Z,39.50
2017-11-17T09:18:36.056Z,52.83
2017-11-17T09:21:05.436Z,39.20
2017-11-17T09:23:34.711Z,39.93
2017-11-17T09:26:03.957Z,36.90
2017-11-17T09:28:33.419Z,32.13
2017-11-17T09:31:02.664Z,47.27
2017-11-17T09:33:32.032Z,40.57
2017-11-17T09:36:01.250Z,49.60
2017-11-17T09:38:30.549Z,41.73
2017-11-17T09:40:59.846Z,43.57
2017-11-17T09:43:29.080Z,39.87
2017-11-17T09:45:58.340Z,47.63
2017-11-17T09:48:27.820Z,32.37
2017-11-17T09:50:57.216Z,37.60
2017-11-17T09:53:26.479Z,34.40
2017-11-17T09:55:55.750Z,42.50
2017-11-17T09:58:25.235Z,39.07
2017-11-17T10:00:55.535Z,32.97
2017-11-17T10:03:24.793Z,41.90
2017-11-17T10:05:54.051Z,49.90
2017-11-17T10:08:24.158Z,35.90
2017-11-17T10:10:53.427Z,46.70
2017-11-17T10:13:22.692Z,33.17
2017-11-17T10:15:51.964Z,26.90
2017-11-17T10:18:21.400Z,35.97
2017-11-17T10:20:51.460Z,24.73
2017-11-17T10:23:20.790Z,28.20
2017-11-17T10:25:50.135Z,33.20
2017-11-17T10:28:19.558Z,40.13
2017-11-17T10:30:48.852Z,33.30
2017-11-17T10:33:18.134Z,30.50
2017-11-17T10:35:48.255Z,46.00
2017-11-17T10:38:17.515Z,40.57
2017-11-17T10:40:46.871Z,39.40
2017-11-17T10:43:16.335Z,45.57
2017-11-17T10:45:46.381Z,47.40
2017-11-17T10:48:15.632Z,38.27
2017-11-17T10:50:44.928Z,36.83
2017-11-17T10:53:15.283Z,35.70
2017-11-17T10:55:44.600Z,46.13
2017-11-17T10:58:14.731Z,44.07
2017-11-17T11:00:44.842Z,49.63
2017-11-17T11:03:14.979Z,52.77
2017-11-17T11:05:44.971Z,52.27
2017-11-17T11:08:14.251Z,63.43
2017-11-17T11:10:43.515Z,58.13
2017-11-17T11:13:12.792Z,59.33
2017-11-17T11:15:42.952Z,44.40
2017-11-17T11:18:12.287Z,65.83
2017-11-17T11:20:41.684Z,55.53
2017-11-17T11:23:11.710Z,51.50
2017-11-17T11:25:40.991Z,44.90
2017-11-17T11:28:10.261Z,49.70
2017-11-17T11:30:39.527Z,47.87
2017-11-17T11:33:08.791Z,53.63
2017-11-17T11:35:38.823Z,57.70
2017-11-17T11:38:08.093Z,45.07
2017-11-17T11:40:38.137Z,60.53
2017-11-17T11:43:07.427Z,44.97
2017-11-17T11:45:37.446Z,50.20
2017-11-17T11:48:06.855Z,58.63
2017-11-17T11:50:37.004Z,61.37
2017-11-17T11:53:06.247Z,59.20
2017-11-17T11:55:35.529Z,55.07
2017-11-17T11:58:04.783Z,53.10
2017-11-17T12:00:34.080Z,58.23
2017-11-17T12:03:03.349Z,49.07
2017-11-17T12:05:33.560Z,67.43
2017-11-17T12:08:02.903Z,70.43
2017-11-17T12:10:32.944Z,54.83
2017-11-17T12:13:02.197Z,65.33
2017-11-17T12:15:31.749Z,62.00
2017-11-17T12:18:01.745Z,62.17
2017-11-17T12:20:31.791Z,53.73
2017-11-17T12:23:01.302Z,50.20
2017-11-17T12:25:30.529Z,57.03
2017-11-17T12:27:59.789Z,61.40
2017-11-17T12:30:29.076Z,57.53
2017-11-17T12:32:59.147Z,59.10
2017-11-17T12:35:28.426Z,40.70
2017-11-17T12:37:57.724Z,42.50
2017-11-17T12:40:28.777Z,47.33
2017-11-17T12:42:58.024Z,51.57
2017-11-17T12:45:27.291Z,52.57
2017-11-17T12:47:57.021Z,48.07
2017-11-17T12:50:26.240Z,51.93
2017-11-17T12:52:55.532Z,61.17
2017-11-17T12:55:24.821Z,41.93
2017-11-17T12:57:54.311Z,57.73
2017-11-17T13:00:24.351Z,60.53
2017-11-17T13:02:53.676Z,49.97
2017-11-17T13:05:23.044Z,51.10
2017-11-17T13:07:53.086Z,61.53
2017-11-17T13:10:22.351Z,48.37
2017-11-17T13:12:51.897Z,49.10
2017-11-17T13:15:21.155Z,55.40
2017-11-17T13:17:50.426Z,47.53
2017-11-17T13:20:19.703Z,46.47
2017-11-17T13:22:49.772Z,55.87
2017-11-17T13:25:19.090Z,44.10
2017-11-17T13:27:49.196Z,53.87
2017-11-17T13:30:18.488Z,47.30
2017-11-17T13:32:47.800Z,47.87
2017-11-17T13:35:17.199Z,50.60
2017-11-17T13:37:46.479Z,49.60
2017-11-17T13:40:15.960Z,46.57
2017-11-17T13:42:46.200Z,60.90
2017-11-17T13:45:15.476Z,53.67
2017-11-17T13:47:44.744Z,48.67
2017-11-17T13:50:14.154Z,50.60
2017-11-17T13:52:43.456Z,61.00
2017-11-17T13:55:12.712Z,54.17
2017-11-17T13:57:41.999Z,56.17
2017-11-17T14:00:12.100Z,56.80
2017-11-17T14:02:42.146Z,66.57
2017-11-17T14:05:11.412Z,69.60
2017-11-17T14:07:40.819Z,57.40
2017-11-17T14:10:10.087Z,61.73
2017-11-17T14:12:39.348Z,67.30
2017-11-17T14:15:08.615Z,66.73
2017-11-17T14:17:37.865Z,63.83
2017-11-17T14:20:07.812Z,58.30
2017-11-17T14:22:37.047Z,62.83
2017-11-17T14:25:07.083Z,66.67
2017-11-17T14:27:36.335Z,72.40
2017-11-17T14:30:05.620Z,77.63
2017-11-17T14:32:34.879Z,78.70
2017-11-17T14:35:04.900Z,64.47
2017-11-17T14:37:34.294Z,73.57
2017-11-17T14:40:04.309Z,90.47
2017-11-17T14:42:33.741Z,66.47
2017-11-17T14:45:03.025Z,62.33
2017-11-17T14:47:32.438Z,72.23
2017-11-17T14:50:01.854Z,75.03
2017-11-17T14:52:31.088Z,73.70
2017-11-17T14:55:00.378Z,79.20
2017-11-17T14:57:29.761Z,70.07
2017-11-17T14:59:59.139Z,73.97
2017-11-17T15:02:29.183Z,91.10
2017-11-17T15:04:58.624Z,84.10
2017-11-17T15:07:28.694Z,98.40
2017-11-17T15:09:57.998Z,78.50
2017-11-17T15:12:27.270Z,72.73
2017-11-17T15:14:56.503Z,70.53
2017-11-17T15:17:25.788Z,77.43
2017-11-17T15:19:55.819Z,100.03
2017-11-17T15:22:25.099Z,81.07
2017-11-17T15:24:55.155Z,73.43
2017-11-17T15:27:24.417Z,74.77
2017-11-17T15:29:53.696Z,80.67
2017-11-17T15:32:22.983Z,87.80
2017-11-17T15:34:52.238Z,82.90
2017-11-17T15:37:21.525Z,86.57
2017-11-17T15:39:51.567Z,65.50
2017-11-17T15:42:21.763Z,70.37
2017-11-17T15:44:51.034Z,72.63
2017-11-17T15:47:20.335Z,76.70
2017-11-17T15:49:49.736Z,79.83
2017-11-17T15:52:18.996Z,79.20
2017-11-17T15:54:48.296Z,240.70
2017-11-17T15:57:17.664Z,99.67
2017-11-17T15:59:47.227Z,91.53
2017-11-17T16:02:16.533Z,70.60
2017-11-17T16:04:45.883Z,75.23
2017-11-17T16:07:15.124Z,72.37
2017-11-17T16:09:44.407Z,73.97
2017-11-17T16:12:13.670Z,71.43
2017-11-17T16:14:42.919Z,84.63
2017-11-17T16:17:12.948Z,67.37
2017-11-17T16:19:42.200Z,69.63
2017-11-17T16:22:11.600Z,92.70
2017-11-17T16:24:40.963Z,126.10
2017-11-17T16:27:10.261Z,106.93
2017-11-17T16:29:39.757Z,121.80
2017-11-17T16:32:09.654Z,108.53
2017-11-17T16:34:39.669Z,115.93
2017-11-17T16:37:08.970Z,141.27
2017-11-17T16:39:38.239Z,120.77
2017-11-17T16:42:09.017Z,149.73
2017-11-17T16:44:38.327Z,129.73
2017-11-17T16:47:07.604Z,117.27
2017-11-17T16:49:36.933Z,136.07
2017-11-17T16:52:06.202Z,122.00
2017-11-17T16:54:37.043Z,150.40
2017-11-17T16:57:07.068Z,104.83
2017-11-17T16:59:36.664Z,154.13
2017-11-17T17:02:06.041Z,107.30
2017-11-17T17:04:35.320Z,129.93
2017-11-17T17:07:04.587Z,120.87
2017-11-17T17:09:34.702Z,131.27
2017-11-17T17:12:04.763Z,143.83
2017-11-17T17:14:34.043Z,128.07
2017-11-17T17:17:03.323Z,124.73
2017-11-17T17:19:32.588Z,165.13
2017-11-17T17:22:01.889Z,151.53
2017-11-17T17:24:31.157Z,135.57
2017-11-17T17:27:00.608Z,156.63
2017-11-17T17:29:29.971Z,141.57
2017-11-17T17:31:59.438Z,168.23
2017-11-17T17:34:28.775Z,157.93
2017-11-17T17:36:58.261Z,145.40
2017-11-17T17:39:27.527Z,145.43
2017-11-17T17:41:56.862Z,181.10
2017-11-17T17:44:26.892Z,158.53
2017-11-17T17:46:56.185Z,163.50
2017-11-17T17:49:25.476Z,151.17
2017-11-17T17:51:54.740Z,189.70
2017-11-17T17:54:24.095Z,153.93
2017-11-17T17:56:53.372Z,164.20
2017-11-17T17:59:22.668Z,208.93
2017-11-17T18:01:51.935Z,162.53
2017-11-17T18:04:21.197Z,247.63
2017-11-17T18:06:50.477Z,225.13
2017-11-17T18:09:20.522Z,187.90
2017-11-17T18:11:49.829Z,206.87
2017-11-17T18:14:19.149Z,179.23
2017-11-17T18:16:48.511Z,142.17
2017-11-17T18:19:18.549Z,183.63
2017-11-17T18:21:47.930Z,228.60
2017-11-17T18:24:18.271Z,151.13
2017-11-17T18:26:47.524Z,178.43
2017-11-17T18:29:16.816Z,184.67
2017-11-17T18:31:46.813Z,165.83
2017-11-17T18:34:16.104Z,202.37
2017-11-17T18:36:45.377Z,181.87
2017-11-17T18:39:15.485Z,193.73
2017-11-17T18:41:44.844Z,190.17
2017-11-17T18:44:14.220Z,236.50
2017-11-17T18:46:43.503Z,296.00
2017-11-17T18:49:12.856Z,235.20
2017-11-17T18:51:42.045Z,159.77
2017-11-17T18:54:11.330Z,169.20
2017-11-17T18:56:40.587Z,325.93
2017-11-17T18:59:10.685Z,164.30
2017-11-17T19:01:40.103Z,250.10
2017-11-17T19:04:11.614Z,247.47
2017-11-17T19:06:40.926Z,293.77
2017-11-17T19:09:10.163Z,248.87
2017-11-17T19:11:39.504Z,184.47
2017-11-17T19:14:09.597Z,229.83
2017-11-17T19:16:38.797Z,167.77
2017-11-17T19:19:08.062Z,228.27
2017-11-17T19:21:37.428Z,179.70
2017-11-17T19:24:06.846Z,178.63
2017-11-17T19:26:36.200Z,133.00
2017-11-17T19:29:05.475Z,214.87
2017-11-17T19:31:34.741Z,220.00
2017-11-17T19:34:04.026Z,152.90
2017-11-17T19:36:33.281Z,139.17
2017-11-17T19:39:03.331Z,132.57
2017-11-17T19:41:32.613Z,111.33
2017-11-17T19:44:01.882Z,117.87
2017-11-17T19:46:31.143Z,132.23
2017-11-17T19:49:00.438Z,151.30
2017-11-17T19:51:29.720Z,153.07
2017-11-17T19:54:00.494Z,116.03
2017-11-17T19:56:29.842Z,102.77
2017-11-17T19:58:59.368Z,88.13
2017-11-17T20:01:29.110Z,128.80
2017-11-17T20:03:58.393Z,121.10
2017-11-17T20:06:28.431Z,84.60
2017-11-17T20:08:58.426Z,88.47
2017-11-17T20:11:28.459Z,61.87
2017-11-17T20:13:57.760Z,56.03
2017-11-17T20:16:27.996Z,73.00
2017-11-17T20:18:58.004Z,54.57
2017-11-17T20:21:27.255Z,53.90
2017-11-17T20:23:56.614Z,56.40
2017-11-17T20:26:26.214Z,54.47
2017-11-17T20:28:55.532Z,40.60
2017-11-17T20:31:24.815Z,43.90
2017-11-17T20:33:54.837Z,49.83
2017-11-17T20:36:24.149Z,35.97
2017-11-17T20:38:53.651Z,36.33
2017-11-17T20:41:22.954Z,44.97
2017-11-17T20:43:52.207Z,42.70
2017-11-17T20:46:21.484Z,41.60
2017-11-17T20:48:50.778Z,36.03
2017-11-17T20:51:20.507Z,37.77
2017-11-17T20:53:50.691Z,50.77
2017-11-17T20:56:19.956Z,44.80
2017-11-17T20:58:49.232Z,53.07
2017-11-17T21:01:18.512Z,33.80
2017-11-17T21:03:48.201Z,43.43
2017-11-17T21:06:17.446Z,33.13
2017-11-17T21:08:46.727Z,50.77
2017-11-17T21:11:15.991Z,46.97
2017-11-17T21:13:45.368Z,52.33
2017-11-17T21:16:15.425Z,36.57
2017-11-17T21:18:44.842Z,35.07
2017-11-17T21:21:14.117Z,45.87
2017-11-17T21:23:43.533Z,54.40
2017-11-17T21:26:12.784Z,34.83
2017-11-17T21:28:42.099Z,47.60
2017-11-17T21:31:11.382Z,45.27
2017-11-17T21:33:40.797Z,35.60
2017-11-17T21:36:10.068Z,39.73
2017-11-17T21:38:39.333Z,33.63
2017-11-17T21:41:08.595Z,33.87
2017-11-17T21:43:38.046Z,36.43
2017-11-17T21:46:08.075Z,36.57
2017-11-17T21:48:37.313Z,42.97
2017-11-17T21:51:06.624Z,41.20
2017-11-17T21:53:35.884Z,41.63
2017-11-17T21:56:05.167Z,34.70
2017-11-17T21:58:35.198Z,27.40
2017-11-17T22:01:04.465Z,41.40
2017-11-17T22:03:33.887Z,50.73
2017-11-17T22:06:04.021Z,32.97
2017-11-17T22:08:33.288Z,41.20
2017-11-17T22:11:02.608Z,35.43
2017-11-17T22:13:31.857Z,39.43
2017-11-17T22:16:01.124Z,38.03
2017-11-17T22:18:30.401Z,44.43
2017-11-17T22:20:59.641Z,32.00
2017-11-17T22:23:28.894Z,40.37
2017-11-17T22:25:58.960Z,35.47
2017-11-17T22:28:28.446Z,52.43
2017-11-17T22:30:57.687Z,41.03
2017-11-17T22:33:26.951Z,38.50
2017-11-17T22:35:56.439Z,45.17
2017-11-17T22:38:26.547Z,54.70
2017-11-17T22:40:56.576Z,44.90
2017-11-17T22:43:26.591Z,42.10
2017-11-17T22:45:56.675Z,40.03
2017-11-17T22:48:26.111Z,36.50
2017-11-17T22:50:55.541Z,36.73
2017-11-17T22:53:24.868Z,47.93
2017-11-17T22:55:54.123Z,55.77
2017-11-17T22:58:23.533Z,33.20
2017-11-17T23:00:52.778Z,43.73
2017-11-17T23:03:22.093Z,47.67
2017-11-17T23:05:51.367Z,40.03
2017-11-17T23:08:20.643Z,49.87
2017-11-17T23:10:49.892Z,47.63
2017-11-17T23:13:19.229Z,50.37
2017-11-17T23:15:49.262Z,44.43
2017-11-17T23:18:18.529Z,41.13
2017-11-17T23:20:49.275Z,27.80
2017-11-17T23:23:18.576Z,41.47
2017-11-17T23:25:47.986Z,42.93
2017-11-17T23:28:18.100Z,53.27
2017-11-17T23:30:48.180Z,41.33
2017-11-17T23:33:17.532Z,42.90
2017-11-17T23:35:54.353Z,38.03
2017-11-17T23:38:23.735Z,43.40
2017-11-17T23:40:53.148Z,42.13
2017-11-17T23:43:22.402Z,41.87
2017-11-17T23:45:51.882Z,42.00
2017-11-17T23:48:21.134Z,40.67
2017-11-17T23:50:51.857Z,49.23
2017-11-17T23:53:21.490Z,45.90
2017-11-17T23:55:50.844Z,43.00
2017-11-17T23:58:20.121Z,48.57
